sensor_id;sensor_type;location;lat;lon;timestamp;P1;durP1;ratioP1;P2;durP2;ratioP2
10412;SDS011;5252;42.602;23.386;2022-07-10T00:01:30;21.45;;;19.70;;
10412;SDS011;5252;42.602;23.386;2022-07-10T00:03:56;22.95;;;20.98;;
10412;SDS011;5252;42.602;23.386;2022-07-10T00:06:23;22.55;;;20.65;;
10412;SDS011;5252;42.602;23.386;2022-07-10T00:08:50;23.60;;;21.45;;
10412;SDS011;5252;42.602;23.386;2022-07-10T00:11:17;23.70;;;21.67;;
10412;SDS011;5252;42.602;23.386;2022-07-10T00:13:44;23.67;;;21.48;;
10412;SDS011;5252;42.602;23.386;2022-07-10T00:16:11;22.73;;;20.90;;
10412;SDS011;5252;42.602;23.386;2022-07-10T00:18:37;22.92;;;21.02;;
10412;SDS011;5252;42.602;23.386;2022-07-10T00:21:04;22.33;;;20.42;;
10412;SDS011;5252;42.602;23.386;2022-07-10T00:23:31;23.00;;;21.17;;
10412;SDS011;5252;42.602;23.386;2022-07-10T00:25:57;24.15;;;22.10;;
10412;SDS011;5252;42.602;23.386;2022-07-10T00:28:25;22.92;;;21.13;;
10412;SDS011;5252;42.602;23.386;2022-07-10T00:30:52;21.58;;;19.85;;
10412;SDS011;5252;42.602;23.386;2022-07-10T00:33:19;21.25;;;19.48;;
10412;SDS011;5252;42.602;23.386;2022-07-10T00:35:45;20.60;;;18.90;;
10412;SDS011;5252;42.602;23.386;2022-07-10T00:38:12;21.00;;;19.30;;
10412;SDS011;5252;42.602;23.386;2022-07-10T00:40:39;20.65;;;18.95;;
10412;SDS011;5252;42.602;23.386;2022-07-10T00:43:07;20.95;;;18.98;;
10412;SDS011;5252;42.602;23.386;2022-07-10T00:45:35;19.80;;;18.02;;
10412;SDS011;5252;42.602;23.386;2022-07-10T00:48:02;22.17;;;20.35;;
10412;SDS011;5252;42.602;23.386;2022-07-10T00:50:29;21.55;;;19.85;;
10412;SDS011;5252;42.602;23.386;2022-07-10T00:52:55;22.00;;;20.13;;
10412;SDS011;5252;42.602;23.386;2022-07-10T00:55:22;21.00;;;19.20;;
10412;SDS011;5252;42.602;23.386;2022-07-10T00:57:49;22.48;;;20.70;;
10412;SDS011;5252;42.602;23.386;2022-07-10T01:00:15;21.45;;;19.73;;
10412;SDS011;5252;42.602;23.386;2022-07-10T01:02:45;18.58;;;17.15;;
10412;SDS011;5252;42.602;23.386;2022-07-10T01:05:12;17.35;;;16.05;;
10412;SDS011;5252;42.602;23.386;2022-07-10T01:07:39;15.02;;;13.82;;
10412;SDS011;5252;42.602;23.386;2022-07-10T01:10:05;11.52;;;10.55;;
10412;SDS011;5252;42.602;23.386;2022-07-10T01:12:32;12.82;;;11.55;;
10412;SDS011;5252;42.602;23.386;2022-07-10T01:14:59;10.07;;;9.25;;
10412;SDS011;5252;42.602;23.386;2022-07-10T01:17:25;10.27;;;9.48;;
10412;SDS011;5252;42.602;23.386;2022-07-10T01:19:55;10.70;;;9.90;;
10412;SDS011;5252;42.602;23.386;2022-07-10T01:22:23;10.02;;;9.32;;
10412;SDS011;5252;42.602;23.386;2022-07-10T01:24:50;11.50;;;10.65;;
10412;SDS011;5252;42.602;23.386;2022-07-10T01:27:16;11.15;;;10.13;;
10412;SDS011;5252;42.602;23.386;2022-07-10T01:29:43;11.40;;;10.40;;
10412;SDS011;5252;42.602;23.386;2022-07-10T01:32:10;10.50;;;9.65;;
10412;SDS011;5252;42.602;23.386;2022-07-10T01:34:36;12.57;;;11.48;;
10412;SDS011;5252;42.602;23.386;2022-07-10T01:37:03;14.05;;;12.88;;
10412;SDS011;5252;42.602;23.386;2022-07-10T01:39:31;13.57;;;12.38;;
10412;SDS011;5252;42.602;23.386;2022-07-10T01:41:58;14.77;;;13.68;;
10412;SDS011;5252;42.602;23.386;2022-07-10T01:44:24;16.08;;;14.77;;
10412;SDS011;5252;42.602;23.386;2022-07-10T01:46:51;14.90;;;13.38;;
10412;SDS011;5252;42.602;23.386;2022-07-10T01:49:18;16.65;;;15.23;;
10412;SDS011;5252;42.602;23.386;2022-07-10T01:51:44;17.75;;;16.05;;
10412;SDS011;5252;42.602;23.386;2022-07-10T01:54:11;17.73;;;16.23;;
10412;SDS011;5252;42.602;23.386;2022-07-10T01:56:39;19.55;;;17.80;;
10412;SDS011;5252;42.602;23.386;2022-07-10T01:59:06;19.00;;;17.50;;
10412;SDS011;5252;42.602;23.386;2022-07-10T02:01:32;19.60;;;17.75;;
10412;SDS011;5252;42.602;23.386;2022-07-10T02:03:59;18.00;;;16.60;;
10412;SDS011;5252;42.602;23.386;2022-07-10T02:06:43;18.75;;;17.35;;
10412;SDS011;5252;42.602;23.386;2022-07-10T02:09:09;18.85;;;17.15;;
10412;SDS011;5252;42.602;23.386;2022-07-10T02:11:36;18.50;;;17.02;;
10412;SDS011;5252;42.602;23.386;2022-07-10T02:14:04;18.52;;;16.98;;
10412;SDS011;5252;42.602;23.386;2022-07-10T02:16:31;18.55;;;16.95;;
10412;SDS011;5252;42.602;23.386;2022-07-10T02:18:57;18.10;;;16.50;;
10412;SDS011;5252;42.602;23.386;2022-07-10T02:21:24;17.63;;;16.23;;
10412;SDS011;5252;42.602;23.386;2022-07-10T02:23:51;18.42;;;16.65;;
10412;SDS011;5252;42.602;23.386;2022-07-10T02:26:17;18.65;;;17.08;;
10412;SDS011;5252;42.602;23.386;2022-07-10T02:28:44;19.92;;;18.33;;
10412;SDS011;5252;42.602;23.386;2022-07-10T02:31:12;21.15;;;19.27;;
10412;SDS011;5252;42.602;23.386;2022-07-10T02:33:38;21.77;;;19.77;;
10412;SDS011;5252;42.602;23.386;2022-07-10T02:36:05;22.15;;;20.35;;
10412;SDS011;5252;42.602;23.386;2022-07-10T02:38:31;21.33;;;19.65;;
10412;SDS011;5252;42.602;23.386;2022-07-10T02:40:58;21.85;;;19.92;;
10412;SDS011;5252;42.602;23.386;2022-07-10T02:43:25;23.35;;;21.45;;
10412;SDS011;5252;42.602;23.386;2022-07-10T02:45:51;23.17;;;21.27;;
10412;SDS011;5252;42.602;23.386;2022-07-10T02:48:19;24.55;;;22.45;;
10412;SDS011;5252;42.602;23.386;2022-07-10T02:50:46;25.98;;;23.73;;
10412;SDS011;5252;42.602;23.386;2022-07-10T02:53:12;24.77;;;22.67;;
10412;SDS011;5252;42.602;23.386;2022-07-10T02:55:39;23.55;;;21.55;;
10412;SDS011;5252;42.602;23.386;2022-07-10T02:58:05;26.30;;;24.00;;
10412;SDS011;5252;42.602;23.386;2022-07-10T03:00:34;28.75;;;26.00;;
10412;SDS011;5252;42.602;23.386;2022-07-10T03:03:01;26.58;;;24.35;;
10412;SDS011;5252;42.602;23.386;2022-07-10T03:05:29;24.50;;;22.48;;
10412;SDS011;5252;42.602;23.386;2022-07-10T03:07:55;24.60;;;22.40;;
10412;SDS011;5252;42.602;23.386;2022-07-10T03:10:22;23.38;;;21.40;;
10412;SDS011;5252;42.602;23.386;2022-07-10T03:12:49;22.38;;;20.58;;
10412;SDS011;5252;42.602;23.386;2022-07-10T03:15:15;24.73;;;22.73;;
10412;SDS011;5252;42.602;23.386;2022-07-10T03:17:42;25.08;;;22.80;;
10412;SDS011;5252;42.602;23.386;2022-07-10T03:20:09;25.10;;;22.67;;
10412;SDS011;5252;42.602;23.386;2022-07-10T03:22:37;23.50;;;21.52;;
10412;SDS011;5252;42.602;23.386;2022-07-10T03:25:04;22.35;;;20.27;;
10412;SDS011;5252;42.602;23.386;2022-07-10T03:27:30;21.92;;;20.13;;
10412;SDS011;5252;42.602;23.386;2022-07-10T03:29:57;20.30;;;18.70;;
10412;SDS011;5252;42.602;23.386;2022-07-10T03:32:23;20.30;;;18.70;;
10412;SDS011;5252;42.602;23.386;2022-07-10T03:34:50;18.27;;;16.85;;
10412;SDS011;5252;42.602;23.386;2022-07-10T03:37:17;19.73;;;17.98;;
10412;SDS011;5252;42.602;23.386;2022-07-10T03:39:44;17.38;;;15.98;;
10412;SDS011;5252;42.602;23.386;2022-07-10T03:42:11;15.77;;;14.45;;
10412;SDS011;5252;42.602;23.386;2022-07-10T03:44:38;15.38;;;14.27;;
10412;SDS011;5252;42.602;23.386;2022-07-10T03:47:04;15.02;;;13.93;;
10412;SDS011;5252;42.602;23.386;2022-07-10T03:49:31;15.40;;;14.13;;
10412;SDS011;5252;42.602;23.386;2022-07-10T03:51:58;14.38;;;13.27;;
10412;SDS011;5252;42.602;23.386;2022-07-10T03:54:25;14.43;;;13.30;;
10412;SDS011;5252;42.602;23.386;2022-07-10T03:56:53;13.93;;;12.73;;
10412;SDS011;5252;42.602;23.386;2022-07-10T03:59:37;12.55;;;11.45;;
10412;SDS011;5252;42.602;23.386;2022-07-10T04:02:03;13.35;;;12.32;;
10412;SDS011;5252;42.602;23.386;2022-07-10T04:04:30;12.68;;;11.68;;
10412;SDS011;5252;42.602;23.386;2022-07-10T04:06:57;11.98;;;11.05;;
10412;SDS011;5252;42.602;23.386;2022-07-10T04:09:24;11.80;;;10.80;;
10412;SDS011;5252;42.602;23.386;2022-07-10T04:11:50;11.90;;;10.85;;
10412;SDS011;5252;42.602;23.386;2022-07-10T04:14:18;12.18;;;11.18;;
10412;SDS011;5252;42.602;23.386;2022-07-10T04:16:45;10.93;;;10.05;;
10412;SDS011;5252;42.602;23.386;2022-07-10T04:19:11;11.73;;;10.82;;
10412;SDS011;5252;42.602;23.386;2022-07-10T04:21:38;11.40;;;10.45;;
10412;SDS011;5252;42.602;23.386;2022-07-10T04:24:05;10.95;;;10.15;;
10412;SDS011;5252;42.602;23.386;2022-07-10T04:26:31;11.18;;;10.18;;
10412;SDS011;5252;42.602;23.386;2022-07-10T04:28:58;9.73;;;9.02;;
10412;SDS011;5252;42.602;23.386;2022-07-10T04:31:26;10.05;;;9.25;;
10412;SDS011;5252;42.602;23.386;2022-07-10T04:33:52;10.00;;;9.02;;
10412;SDS011;5252;42.602;23.386;2022-07-10T04:36:20;10.30;;;9.50;;
10412;SDS011;5252;42.602;23.386;2022-07-10T04:38:47;9.48;;;8.52;;
10412;SDS011;5252;42.602;23.386;2022-07-10T04:41:13;9.07;;;8.38;;
10412;SDS011;5252;42.602;23.386;2022-07-10T04:43:40;9.38;;;8.48;;
10412;SDS011;5252;42.602;23.386;2022-07-10T04:46:06;9.45;;;8.40;;
10412;SDS011;5252;42.602;23.386;2022-07-10T04:48:35;9.77;;;8.52;;
10412;SDS011;5252;42.602;23.386;2022-07-10T04:51:01;9.52;;;8.63;;
10412;SDS011;5252;42.602;23.386;2022-07-10T04:53:28;8.20;;;7.50;;
10412;SDS011;5252;42.602;23.386;2022-07-10T04:55:55;8.68;;;7.97;;
10412;SDS011;5252;42.602;23.386;2022-07-10T04:58:21;9.15;;;8.45;;
10412;SDS011;5252;42.602;23.386;2022-07-10T05:00:48;11.15;;;9.90;;
10412;SDS011;5252;42.602;23.386;2022-07-10T05:03:14;8.88;;;8.15;;
10412;SDS011;5252;42.602;23.386;2022-07-10T05:05:43;7.63;;;7.03;;
10412;SDS011;5252;42.602;23.386;2022-07-10T05:08:09;7.13;;;6.60;;
10412;SDS011;5252;42.602;23.386;2022-07-10T05:10:36;7.88;;;7.13;;
10412;SDS011;5252;42.602;23.386;2022-07-10T05:13:03;7.30;;;6.53;;
10412;SDS011;5252;42.602;23.386;2022-07-10T05:15:29;8.93;;;7.90;;
10412;SDS011;5252;42.602;23.386;2022-07-10T05:17:56;7.57;;;6.82;;
10412;SDS011;5252;42.602;23.386;2022-07-10T05:20:23;7.65;;;6.95;;
10412;SDS011;5252;42.602;23.386;2022-07-10T05:22:50;6.97;;;6.40;;
10412;SDS011;5252;42.602;23.386;2022-07-10T05:25:17;8.38;;;6.70;;
10412;SDS011;5252;42.602;23.386;2022-07-10T05:27:44;7.78;;;7.05;;
10412;SDS011;5252;42.602;23.386;2022-07-10T05:30:10;7.25;;;6.70;;
10412;SDS011;5252;42.602;23.386;2022-07-10T05:32:41;9.38;;;6.93;;
10412;SDS011;5252;42.602;23.386;2022-07-10T05:35:08;7.45;;;6.85;;
10412;SDS011;5252;42.602;23.386;2022-07-10T05:37:35;7.43;;;6.78;;
10412;SDS011;5252;42.602;23.386;2022-07-10T05:40:03;7.20;;;6.47;;
10412;SDS011;5252;42.602;23.386;2022-07-10T05:42:30;7.38;;;6.75;;
10412;SDS011;5252;42.602;23.386;2022-07-10T05:44:56;7.53;;;6.47;;
10412;SDS011;5252;42.602;23.386;2022-07-10T05:47:23;8.98;;;6.60;;
10412;SDS011;5252;42.602;23.386;2022-07-10T05:49:50;7.50;;;6.90;;
10412;SDS011;5252;42.602;23.386;2022-07-10T05:52:16;6.72;;;6.22;;
10412;SDS011;5252;42.602;23.386;2022-07-10T05:54:43;7.22;;;6.63;;
10412;SDS011;5252;42.602;23.386;2022-07-10T05:57:11;6.80;;;6.20;;
10412;SDS011;5252;42.602;23.386;2022-07-10T05:59:38;6.38;;;5.57;;
10412;SDS011;5252;42.602;23.386;2022-07-10T06:02:05;7.25;;;6.22;;
10412;SDS011;5252;42.602;23.386;2022-07-10T06:04:31;6.20;;;5.53;;
10412;SDS011;5252;42.602;23.386;2022-07-10T06:06:58;6.60;;;6.00;;
10412;SDS011;5252;42.602;23.386;2022-07-10T06:09:24;6.95;;;6.35;;
10412;SDS011;5252;42.602;23.386;2022-07-10T06:11:51;6.90;;;6.30;;
10412;SDS011;5252;42.602;23.386;2022-07-10T06:14:19;5.80;;;5.40;;
10412;SDS011;5252;42.602;23.386;2022-07-10T06:16:45;7.13;;;5.63;;
10412;SDS011;5252;42.602;23.386;2022-07-10T06:19:12;5.93;;;5.43;;
10412;SDS011;5252;42.602;23.386;2022-07-10T06:21:39;5.82;;;5.43;;
10412;SDS011;5252;42.602;23.386;2022-07-10T06:24:05;6.72;;;5.70;;
10412;SDS011;5252;42.602;23.386;2022-07-10T06:26:32;8.40;;;5.25;;
10412;SDS011;5252;42.602;23.386;2022-07-10T06:28:58;6.13;;;5.63;;
10412;SDS011;5252;42.602;23.386;2022-07-10T06:31:26;5.30;;;4.80;;
10412;SDS011;5252;42.602;23.386;2022-07-10T06:33:53;5.50;;;4.90;;
10412;SDS011;5252;42.602;23.386;2022-07-10T06:36:20;5.07;;;4.68;;
10412;SDS011;5252;42.602;23.386;2022-07-10T06:38:47;5.25;;;4.85;;
10412;SDS011;5252;42.602;23.386;2022-07-10T06:41:13;5.40;;;4.90;;
10412;SDS011;5252;42.602;23.386;2022-07-10T06:43:40;6.50;;;4.68;;
10412;SDS011;5252;42.602;23.386;2022-07-10T06:46:06;6.80;;;4.47;;
10412;SDS011;5252;42.602;23.386;2022-07-10T06:48:34;4.32;;;4.03;;
10412;SDS011;5252;42.602;23.386;2022-07-10T06:51:05;4.40;;;4.00;;
10412;SDS011;5252;42.602;23.386;2022-07-10T06:53:31;4.93;;;4.40;;
10412;SDS011;5252;42.602;23.386;2022-07-10T06:55:58;4.53;;;4.15;;
10412;SDS011;5252;42.602;23.386;2022-07-10T06:58:25;4.32;;;3.72;;
10412;SDS011;5252;42.602;23.386;2022-07-10T07:00:51;5.22;;;4.13;;
10412;SDS011;5252;42.602;23.386;2022-07-10T07:03:18;4.50;;;4.10;;
10412;SDS011;5252;42.602;23.386;2022-07-10T07:05:46;4.13;;;3.78;;
10412;SDS011;5252;42.602;23.386;2022-07-10T07:08:12;4.82;;;4.25;;
10412;SDS011;5252;42.602;23.386;2022-07-10T07:10:41;5.03;;;3.53;;
10412;SDS011;5252;42.602;23.386;2022-07-10T07:13:07;4.20;;;3.90;;
10412;SDS011;5252;42.602;23.386;2022-07-10T07:15:34;6.18;;;4.25;;
10412;SDS011;5252;42.602;23.386;2022-07-10T07:18:04;4.35;;;3.90;;
10412;SDS011;5252;42.602;23.386;2022-07-10T07:20:36;4.55;;;4.00;;
10412;SDS011;5252;42.602;23.386;2022-07-10T07:23:22;5.60;;;4.20;;
10412;SDS011;5252;42.602;23.386;2022-07-10T07:25:49;4.63;;;4.10;;
10412;SDS011;5252;42.602;23.386;2022-07-10T07:28:16;4.28;;;3.72;;
10412;SDS011;5252;42.602;23.386;2022-07-10T07:30:44;4.20;;;3.90;;
10412;SDS011;5252;42.602;23.386;2022-07-10T07:33:10;4.25;;;3.85;;
10412;SDS011;5252;42.602;23.386;2022-07-10T07:35:37;4.25;;;3.88;;
10412;SDS011;5252;42.602;23.386;2022-07-10T07:38:03;4.50;;;3.58;;
10412;SDS011;5252;42.602;23.386;2022-07-10T07:40:32;6.43;;;3.83;;
10412;SDS011;5252;42.602;23.386;2022-07-10T07:42:58;3.63;;;3.33;;
10412;SDS011;5252;42.602;23.386;2022-07-10T07:45:25;3.53;;;2.97;;
10412;SDS011;5252;42.602;23.386;2022-07-10T07:47:52;5.65;;;3.50;;
10412;SDS011;5252;42.602;23.386;2022-07-10T07:50:20;3.78;;;3.47;;
10412;SDS011;5252;42.602;23.386;2022-07-10T07:52:47;5.28;;;4.07;;
10412;SDS011;5252;42.602;23.386;2022-07-10T07:55:15;4.25;;;3.70;;
10412;SDS011;5252;42.602;23.386;2022-07-10T07:57:43;4.03;;;3.70;;
10412;SDS011;5252;42.602;23.386;2022-07-10T08:00:10;4.22;;;3.92;;
10412;SDS011;5252;42.602;23.386;2022-07-10T08:02:37;4.10;;;3.72;;
10412;SDS011;5252;42.602;23.386;2022-07-10T08:05:04;5.00;;;4.57;;
10412;SDS011;5252;42.602;23.386;2022-07-10T08:07:34;3.70;;;3.40;;
10412;SDS011;5252;42.602;23.386;2022-07-10T08:10:01;3.97;;;3.40;;
10412;SDS011;5252;42.602;23.386;2022-07-10T08:12:27;3.63;;;3.33;;
10412;SDS011;5252;42.602;23.386;2022-07-10T08:14:55;4.03;;;3.20;;
10412;SDS011;5252;42.602;23.386;2022-07-10T08:17:23;3.42;;;3.13;;
10412;SDS011;5252;42.602;23.386;2022-07-10T08:19:49;3.67;;;3.38;;
10412;SDS011;5252;42.602;23.386;2022-07-10T08:22:16;4.18;;;2.83;;
10412;SDS011;5252;42.602;23.386;2022-07-10T08:24:43;5.45;;;3.08;;
10412;SDS011;5252;42.602;23.386;2022-07-10T08:27:09;3.30;;;3.00;;
10412;SDS011;5252;42.602;23.386;2022-07-10T08:29:37;4.00;;;3.70;;
10412;SDS011;5252;42.602;23.386;2022-07-10T08:32:05;7.47;;;3.30;;
10412;SDS011;5252;42.602;23.386;2022-07-10T08:34:32;6.50;;;3.20;;
10412;SDS011;5252;42.602;23.386;2022-07-10T08:36:58;3.50;;;2.97;;
10412;SDS011;5252;42.602;23.386;2022-07-10T08:39:26;3.58;;;3.03;;
10412;SDS011;5252;42.602;23.386;2022-07-10T08:41:52;3.67;;;3.38;;
10412;SDS011;5252;42.602;23.386;2022-07-10T08:44:19;3.78;;;3.20;;
10412;SDS011;5252;42.602;23.386;2022-07-10T08:46:45;3.50;;;3.10;;
10412;SDS011;5252;42.602;23.386;2022-07-10T08:49:13;6.30;;;3.28;;
10412;SDS011;5252;42.602;23.386;2022-07-10T08:51:45;4.35;;;2.80;;
10412;SDS011;5252;42.602;23.386;2022-07-10T08:54:14;3.40;;;3.10;;
10412;SDS011;5252;42.602;23.386;2022-07-10T08:56:40;3.28;;;2.97;;
10412;SDS011;5252;42.602;23.386;2022-07-10T08:59:07;3.08;;;2.78;;
10412;SDS011;5252;42.602;23.386;2022-07-10T09:01:34;3.80;;;2.83;;
10412;SDS011;5252;42.602;23.386;2022-07-10T09:04:01;3.38;;;3.08;;
10412;SDS011;5252;42.602;23.386;2022-07-10T09:06:29;3.80;;;3.05;;
10412;SDS011;5252;42.602;23.386;2022-07-10T09:08:59;4.80;;;2.70;;
10412;SDS011;5252;42.602;23.386;2022-07-10T09:11:26;2.90;;;2.60;;
10412;SDS011;5252;42.602;23.386;2022-07-10T09:13:55;3.10;;;2.80;;
10412;SDS011;5252;42.602;23.386;2022-07-10T09:16:22;3.95;;;2.95;;
10412;SDS011;5252;42.602;23.386;2022-07-10T09:18:49;3.25;;;3.00;;
10412;SDS011;5252;42.602;23.386;2022-07-10T09:21:16;4.82;;;2.65;;
10412;SDS011;5252;42.602;23.386;2022-07-10T09:23:44;3.17;;;2.70;;
10412;SDS011;5252;42.602;23.386;2022-07-10T09:26:11;3.22;;;2.80;;
10412;SDS011;5252;42.602;23.386;2022-07-10T09:28:38;3.17;;;2.88;;
10412;SDS011;5252;42.602;23.386;2022-07-10T09:31:04;3.15;;;2.85;;
10412;SDS011;5252;42.602;23.386;2022-07-10T09:33:31;2.90;;;2.60;;
10412;SDS011;5252;42.602;23.386;2022-07-10T09:36:03;3.22;;;2.72;;
10412;SDS011;5252;42.602;23.386;2022-07-10T09:38:50;4.72;;;2.88;;
10412;SDS011;5252;42.602;23.386;2022-07-10T09:41:19;2.88;;;2.65;;
10412;SDS011;5252;42.602;23.386;2022-07-10T09:43:47;6.75;;;3.05;;
10412;SDS011;5252;42.602;23.386;2022-07-10T09:46:13;3.58;;;2.97;;
10412;SDS011;5252;42.602;23.386;2022-07-10T09:48:40;3.10;;;2.90;;
10412;SDS011;5252;42.602;23.386;2022-07-10T09:51:08;3.10;;;2.80;;
10412;SDS011;5252;42.602;23.386;2022-07-10T09:53:36;4.57;;;3.03;;
10412;SDS011;5252;42.602;23.386;2022-07-10T09:56:06;4.90;;;2.67;;
10412;SDS011;5252;42.602;23.386;2022-07-10T09:58:33;4.25;;;2.95;;
10412;SDS011;5252;42.602;23.386;2022-07-10T10:01:02;4.00;;;2.90;;
10412;SDS011;5252;42.602;23.386;2022-07-10T10:03:30;3.17;;;2.58;;
10412;SDS011;5252;42.602;23.386;2022-07-10T10:06:01;3.13;;;2.83;;
10412;SDS011;5252;42.602;23.386;2022-07-10T10:08:29;4.20;;;2.80;;
10412;SDS011;5252;42.602;23.386;2022-07-10T10:10:56;3.42;;;2.92;;
10412;SDS011;5252;42.602;23.386;2022-07-10T10:13:25;3.10;;;2.80;;
10412;SDS011;5252;42.602;23.386;2022-07-10T10:15:52;3.05;;;2.72;;
10412;SDS011;5252;42.602;23.386;2022-07-10T10:18:19;4.57;;;2.35;;
10412;SDS011;5252;42.602;23.386;2022-07-10T10:20:47;4.82;;;2.50;;
10412;SDS011;5252;42.602;23.386;2022-07-10T10:23:13;5.05;;;3.67;;
10412;SDS011;5252;42.602;23.386;2022-07-10T10:25:40;3.30;;;3.00;;
10412;SDS011;5252;42.602;23.386;2022-07-10T10:28:08;3.53;;;2.83;;
10412;SDS011;5252;42.602;23.386;2022-07-10T10:30:37;2.85;;;2.35;;
10412;SDS011;5252;42.602;23.386;2022-07-10T10:35:46;3.53;;;2.38;;
10412;SDS011;5252;42.602;23.386;2022-07-10T10:38:13;5.03;;;2.50;;
10412;SDS011;5252;42.602;23.386;2022-07-10T10:40:40;3.63;;;2.50;;
10412;SDS011;5252;42.602;23.386;2022-07-10T10:43:16;2.55;;;2.35;;
10412;SDS011;5252;42.602;23.386;2022-07-10T10:45:45;2.90;;;2.45;;
10412;SDS011;5252;42.602;23.386;2022-07-10T10:48:12;4.32;;;2.40;;
10412;SDS011;5252;42.602;23.386;2022-07-10T10:50:40;3.97;;;2.35;;
10412;SDS011;5252;42.602;23.386;2022-07-10T10:53:13;3.72;;;2.08;;
10412;SDS011;5252;42.602;23.386;2022-07-10T10:55:41;3.38;;;2.13;;
10412;SDS011;5252;42.602;23.386;2022-07-10T10:58:14;2.45;;;2.10;;
10412;SDS011;5252;42.602;23.386;2022-07-10T11:00:42;3.15;;;2.13;;
10412;SDS011;5252;42.602;23.386;2022-07-10T11:03:18;2.65;;;2.45;;
10412;SDS011;5252;42.602;23.386;2022-07-10T11:05:46;2.45;;;2.22;;
10412;SDS011;5252;42.602;23.386;2022-07-10T11:08:12;5.65;;;2.20;;
10412;SDS011;5252;42.602;23.386;2022-07-10T11:10:42;2.35;;;2.10;;
10412;SDS011;5252;42.602;23.386;2022-07-10T11:13:09;2.30;;;2.10;;
10412;SDS011;5252;42.602;23.386;2022-07-10T11:15:36;2.33;;;2.17;;
10412;SDS011;5252;42.602;23.386;2022-07-10T11:18:04;3.10;;;2.03;;
10412;SDS011;5252;42.602;23.386;2022-07-10T11:20:36;2.22;;;2.00;;
10412;SDS011;5252;42.602;23.386;2022-07-10T11:23:15;2.70;;;2.30;;
10412;SDS011;5252;42.602;23.386;2022-07-10T11:25:45;2.40;;;2.15;;
10412;SDS011;5252;42.602;23.386;2022-07-10T11:28:25;2.72;;;2.22;;
10412;SDS011;5252;42.602;23.386;2022-07-10T11:30:57;2.20;;;2.00;;
10412;SDS011;5252;42.602;23.386;2022-07-10T11:33:24;2.38;;;2.17;;
10412;SDS011;5252;42.602;23.386;2022-07-10T11:35:53;2.47;;;2.28;;
10412;SDS011;5252;42.602;23.386;2022-07-10T11:38:21;6.00;;;2.40;;
10412;SDS011;5252;42.602;23.386;2022-07-10T11:40:47;3.38;;;2.05;;
10412;SDS011;5252;42.602;23.386;2022-07-10T11:43:14;2.05;;;1.90;;
10412;SDS011;5252;42.602;23.386;2022-07-10T11:45:42;2.30;;;1.88;;
10412;SDS011;5252;42.602;23.386;2022-07-10T11:48:15;2.50;;;1.70;;
10412;SDS011;5252;42.602;23.386;2022-07-10T11:50:42;2.60;;;2.10;;
10412;SDS011;5252;42.602;23.386;2022-07-10T11:53:11;3.85;;;1.95;;
10412;SDS011;5252;42.602;23.386;2022-07-10T11:55:37;2.92;;;2.10;;
10412;SDS011;5252;42.602;23.386;2022-07-10T11:58:15;2.88;;;2.20;;
10412;SDS011;5252;42.602;23.386;2022-07-10T12:00:42;3.83;;;1.88;;
10412;SDS011;5252;42.602;23.386;2022-07-10T12:03:16;2.78;;;2.08;;
10412;SDS011;5252;42.602;23.386;2022-07-10T12:05:43;1.90;;;1.80;;
10412;SDS011;5252;42.602;23.386;2022-07-10T12:08:11;4.28;;;1.98;;
10412;SDS011;5252;42.602;23.386;2022-07-10T12:10:38;2.78;;;2.00;;
10412;SDS011;5252;42.602;23.386;2022-07-10T12:13:07;3.33;;;1.67;;
10412;SDS011;5252;42.602;23.386;2022-07-10T12:15:34;2.45;;;1.90;;
10412;SDS011;5252;42.602;23.386;2022-07-10T12:18:02;3.20;;;1.90;;
10412;SDS011;5252;42.602;23.386;2022-07-10T12:20:29;2.90;;;1.95;;
10412;SDS011;5252;42.602;23.386;2022-07-10T12:22:56;2.58;;;1.55;;
10412;SDS011;5252;42.602;23.386;2022-07-10T12:25:25;3.30;;;1.77;;
10412;SDS011;5252;42.602;23.386;2022-07-10T12:27:54;3.50;;;2.30;;
10412;SDS011;5252;42.602;23.386;2022-07-10T12:30:21;2.58;;;2.28;;
10412;SDS011;5252;42.602;23.386;2022-07-10T12:32:48;5.78;;;3.35;;
10412;SDS011;5252;42.602;23.386;2022-07-10T12:35:15;3.13;;;2.30;;
10412;SDS011;5252;42.602;23.386;2022-07-10T12:37:47;3.40;;;2.30;;
10412;SDS011;5252;42.602;23.386;2022-07-10T12:40:31;2.88;;;2.22;;
10412;SDS011;5252;42.602;23.386;2022-07-10T12:43:01;2.92;;;1.90;;
10412;SDS011;5252;42.602;23.386;2022-07-10T12:45:28;5.30;;;2.53;;
10412;SDS011;5252;42.602;23.386;2022-07-10T12:47:55;3.40;;;3.08;;
10412;SDS011;5252;42.602;23.386;2022-07-10T12:50:22;2.38;;;1.80;;
10412;SDS011;5252;42.602;23.386;2022-07-10T12:52:50;2.65;;;2.10;;
10412;SDS011;5252;42.602;23.386;2022-07-10T12:55:36;2.72;;;1.85;;
10412;SDS011;5252;42.602;23.386;2022-07-10T12:58:05;4.60;;;1.90;;
10412;SDS011;5252;42.602;23.386;2022-07-10T13:00:34;1.77;;;1.63;;
10412;SDS011;5252;42.602;23.386;2022-07-10T13:03:01;1.65;;;1.50;;
10412;SDS011;5252;42.602;23.386;2022-07-10T13:05:29;2.35;;;1.80;;
10412;SDS011;5252;42.602;23.386;2022-07-10T13:08:08;3.05;;;1.70;;
10412;SDS011;5252;42.602;23.386;2022-07-10T13:10:39;3.55;;;2.42;;
10412;SDS011;5252;42.602;23.386;2022-07-10T13:13:06;3.97;;;1.83;;
10412;SDS011;5252;42.602;23.386;2022-07-10T13:15:33;2.80;;;1.55;;
10412;SDS011;5252;42.602;23.386;2022-07-10T13:18:04;2.10;;;1.42;;
10412;SDS011;5252;42.602;23.386;2022-07-10T13:20:31;5.78;;;1.48;;
10412;SDS011;5252;42.602;23.386;2022-07-10T13:22:58;4.38;;;1.50;;
10412;SDS011;5252;42.602;23.386;2022-07-10T13:25:24;2.30;;;1.40;;
10412;SDS011;5252;42.602;23.386;2022-07-10T13:27:52;3.13;;;1.30;;
10412;SDS011;5252;42.602;23.386;2022-07-10T13:30:19;1.60;;;1.38;;
10412;SDS011;5252;42.602;23.386;2022-07-10T13:32:46;1.38;;;1.13;;
10412;SDS011;5252;42.602;23.386;2022-07-10T13:35:12;1.67;;;1.20;;
10412;SDS011;5252;42.602;23.386;2022-07-10T13:37:39;3.00;;;1.35;;
10412;SDS011;5252;42.602;23.386;2022-07-10T13:40:06;2.50;;;1.30;;
10412;SDS011;5252;42.602;23.386;2022-07-10T13:42:33;2.13;;;1.30;;
10412;SDS011;5252;42.602;23.386;2022-07-10T13:45:01;2.92;;;1.10;;
10412;SDS011;5252;42.602;23.386;2022-07-10T13:47:28;2.85;;;1.23;;
10412;SDS011;5252;42.602;23.386;2022-07-10T13:49:54;1.80;;;1.23;;
10412;SDS011;5252;42.602;23.386;2022-07-10T13:52:21;2.50;;;1.20;;
10412;SDS011;5252;42.602;23.386;2022-07-10T13:54:47;3.63;;;1.00;;
10412;SDS011;5252;42.602;23.386;2022-07-10T13:57:14;1.55;;;1.08;;
10412;SDS011;5252;42.602;23.386;2022-07-10T13:59:40;2.03;;;1.20;;
10412;SDS011;5252;42.602;23.386;2022-07-10T14:02:08;2.15;;;1.27;;
10412;SDS011;5252;42.602;23.386;2022-07-10T14:04:35;2.22;;;1.30;;
10412;SDS011;5252;42.602;23.386;2022-07-10T14:07:02;1.55;;;1.30;;
10412;SDS011;5252;42.602;23.386;2022-07-10T14:09:28;1.42;;;1.30;;
10412;SDS011;5252;42.602;23.386;2022-07-10T14:11:57;2.65;;;1.30;;
10412;SDS011;5252;42.602;23.386;2022-07-10T14:14:24;2.30;;;1.10;;
10412;SDS011;5252;42.602;23.386;2022-07-10T14:16:51;1.77;;;1.20;;
10412;SDS011;5252;42.602;23.386;2022-07-10T14:19:20;2.47;;;1.10;;
10412;SDS011;5252;42.602;23.386;2022-07-10T14:21:47;1.63;;;1.10;;
10412;SDS011;5252;42.602;23.386;2022-07-10T14:24:13;1.00;;;0.90;;
10412;SDS011;5252;42.602;23.386;2022-07-10T14:26:40;1.83;;;1.17;;
10412;SDS011;5252;42.602;23.386;2022-07-10T14:29:07;1.70;;;1.10;;
10412;SDS011;5252;42.602;23.386;2022-07-10T14:31:33;1.98;;;0.95;;
10412;SDS011;5252;42.602;23.386;2022-07-10T14:34:00;2.15;;;1.08;;
10412;SDS011;5252;42.602;23.386;2022-07-10T14:36:28;1.77;;;1.20;;
10412;SDS011;5252;42.602;23.386;2022-07-10T14:38:55;1.67;;;1.35;;
10412;SDS011;5252;42.602;23.386;2022-07-10T14:41:22;2.85;;;1.25;;
10412;SDS011;5252;42.602;23.386;2022-07-10T14:43:53;1.90;;;1.70;;
10412;SDS011;5252;42.602;23.386;2022-07-10T14:46:20;2.00;;;1.30;;